Time,TemperatureF,DewpointF,PressureIn,WindDirection,WindDirectionDegrees,WindSpeedMPH,WindSpeedGustMPH,Humidity,HourlyPrecipIn,Conditions,Clouds,dailyrainin,SoftwareType,DateUTC
2013-01-29 00:00:00,54.3,53.4,30.25,WSW,248,1.8,2.3,97,0.00,,---,0.00,VWS V14.01,2013-01-29 05:00:00,
2013-01-29 00:03:00,54.3,53.4,30.25,WSW,248,4.1,5.2,97,0.00,,---,0.00,VWS V14.01,2013-01-29 05:03:00,
2013-01-29 00:08:00,54.3,53.4,30.25,WNW,292,0.0,0.0,97,0.00,,---,0.00,VWS V14.01,2013-01-29 05:08:00,
2013-01-29 00:13:00,54.2,53.3,30.25,WNW,292,0.7,0.8,97,0.00,,---,0.00,VWS V14.01,2013-01-29 05:13:00,
2013-01-29 00:18:00,54.2,53.0,30.25,WNW,292,0.7,0.8,96,0.00,,---,0.00,VWS V14.01,2013-01-29 05:18:00,
2013-01-29 00:23:00,54.2,53.0,30.25,WNW,292,0.7,0.8,96,0.00,,---,0.00,VWS V14.01,2013-01-29 05:23:00,
2013-01-29 00:28:00,54.2,53.0,30.24,WNW,292,1.2,1.5,96,0.00,,---,0.00,VWS V14.01,2013-01-29 05:28:00,
2013-01-29 00:33:00,54.0,52.8,30.24,SW,225,0.3,0.4,96,0.00,,---,0.00,VWS V14.01,2013-01-29 05:33:00,
2013-01-29 00:38:00,54.0,52.8,30.24,WNW,292,1.8,2.3,96,0.00,,---,0.00,VWS V14.01,2013-01-29 05:38:00,
2013-01-29 00:43:00,54.0,52.8,30.24,East,90,0.7,0.8,96,0.00,,---,0.00,VWS V14.01,2013-01-29 05:43:00,
2013-01-29 00:48:00,54.0,52.8,30.24,East,90,0.7,0.8,96,0.00,,---,0.00,VWS V14.01,2013-01-29 05:48:00,
2013-01-29 00:53:00,54.0,52.8,30.24,East,90,0.7,0.8,96,0.00,,---,0.00,VWS V14.01,2013-01-29 05:53:00,
2013-01-29 00:58:00,54.0,52.8,30.24,West,270,0.0,0.0,96,0.00,,---,0.00,VWS V14.01,2013-01-29 05:58:00,
2013-01-29 01:03:00,54.0,52.8,30.24,WSW,248,3.0,3.8,96,0.00,,---,0.00,VWS V14.01,2013-01-29 06:03:00,
2013-01-29 01:08:00,53.8,52.7,30.24,West,270,0.7,2.7,96,0.00,,---,0.00,VWS V14.01,2013-01-29 06:08:00,
2013-01-29 01:13:00,53.8,52.7,30.24,WSW,248,1.5,1.9,96,0.00,,---,0.00,VWS V14.01,2013-01-29 06:13:00,
2013-01-29 01:18:00,53.8,52.7,30.24,WSW,248,1.8,2.3,96,0.00,,---,0.00,VWS V14.01,2013-01-29 06:18:00,
2013-01-29 01:23:00,53.8,53.0,30.24,WNW,292,2.1,8.0,97,0.00,,---,0.00,VWS V14.01,2013-01-29 06:23:00,
2013-01-29 01:28:00,53.8,53.0,30.23,SW,225,1.5,1.9,97,0.00,,---,0.00,VWS V14.01,2013-01-29 06:28:00,
2013-01-29 01:33:00,53.6,52.8,30.24,West,270,2.1,2.7,97,0.00,,---,0.00,VWS V14.01,2013-01-29 06:33:00,
2013-01-29 01:38:00,53.6,52.8,30.23,WSW,248,0.0,0.0,97,0.00,,---,0.00,VWS V14.01,2013-01-29 06:38:00,
2013-01-29 01:43:00,53.6,52.8,30.23,WSW,248,0.7,0.8,97,0.00,,---,0.00,VWS V14.01,2013-01-29 06:43:00,
2013-01-29 01:48:00,53.4,52.5,30.23,WNW,292,3.3,4.2,97,0.00,,---,0.00,VWS V14.01,2013-01-29 06:48:00,
2013-01-29 01:53:00,53.3,52.5,30.24,West,270,0.0,0.0,97,0.00,,---,0.00,VWS V14.01,2013-01-29 06:53:00,
2013-01-29 01:58:00,53.3,52.5,30.24,NNW,338,0.7,0.8,97,0.00,,---,0.00,VWS V14.01,2013-01-29 06:58:00,
2013-01-29 02:03:00,53.1,52.3,30.24,South,180,0.7,0.8,97,0.00,,---,0.00,VWS V14.01,2013-01-29 07:03:00,
2013-01-29 02:08:00,52.7,51.6,30.23,WNW,292,0.7,0.8,96,0.00,,---,0.00,VWS V14.01,2013-01-29 07:08:00,
2013-01-29 02:13:00,52.5,51.4,30.23,WNW,292,0.0,0.0,96,0.00,,---,0.00,VWS V14.01,2013-01-29 07:13:00,
2013-01-29 02:18:00,52.2,51.1,30.23,West,270,1.2,2.7,96,0.00,,---,0.00,VWS V14.01,2013-01-29 07:18:00,
2013-01-29 02:23:00,52.0,50.9,30.23,WNW,292,0.0,0.0,96,0.00,,---,0.00,VWS V14.01,2013-01-29 07:23:00,
2013-01-29 02:28:00,51.8,50.7,30.23,WNW,292,0.0,0.4,96,0.00,,---,0.00,VWS V14.01,2013-01-29 07:28:00,
2013-01-29 02:34:00,51.7,50.2,30.22,WNW,292,0.0,0.0,95,0.00,,---,0.00,VWS V14.01,2013-01-29 07:34:00,
2013-01-29 02:39:00,51.3,49.9,30.22,WSW,248,1.8,2.3,95,0.00,,---,0.00,VWS V14.01,2013-01-29 07:39:00,
2013-01-29 02:44:00,51.3,49.9,30.22,WSW,248,0.0,0.0,95,0.00,,---,0.00,VWS V14.01,2013-01-29 07:44:00,
2013-01-29 02:49:00,51.2,49.7,30.22,WSW,248,0.0,0.0,95,0.00,,---,0.00,VWS V14.01,2013-01-29 07:49:00,
2013-01-29 02:53:00,51.2,49.7,30.22,WSW,248,0.0,0.0,95,0.00,,---,0.00,VWS V14.01,2013-01-29 07:53:00,
2013-01-29 02:59:00,51.0,49.5,30.22,West,270,0.0,0.4,95,0.00,,---,0.00,VWS V14.01,2013-01-29 07:59:00,
2013-01-29 03:03:00,50.7,49.2,30.23,West,270,0.0,0.0,95,0.00,,---,0.00,VWS V14.01,2013-01-29 08:03:00,
2013-01-29 03:09:00,50.5,49.1,30.23,West,270,0.0,0.0,95,0.00,,---,0.00,VWS V14.01,2013-01-29 08:09:00,
2013-01-29 03:14:00,50.5,49.1,30.22,WSW,248,3.3,4.2,95,0.00,,---,0.00,VWS V14.01,2013-01-29 08:14:00,
2013-01-29 03:19:00,50.5,49.1,30.22,WSW,248,0.0,0.0,95,0.00,,---,0.00,VWS V14.01,2013-01-29 08:19:00,
2013-01-29 03:24:00,50.3,48.9,30.23,WSW,248,0.0,0.0,95,0.00,,---,0.00,VWS V14.01,2013-01-29 08:24:00,
2013-01-29 03:29:00,50.1,48.7,30.23,WSW,248,0.0,0.0,95,0.00,,---,0.00,VWS V14.01,2013-01-29 08:29:00,
2013-01-29 03:34:00,49.9,48.5,30.22,WSW,248,0.0,0.0,95,0.00,,---,0.00,VWS V14.01,2013-01-29 08:34:00,
2013-01-29 03:39:00,49.8,48.4,30.22,WSW,248,0.0,0.0,95,0.00,,---,0.00,VWS V14.01,2013-01-29 08:39:00,
2013-01-29 03:44:00,49.8,48.4,30.22,WSW,248,0.0,0.0,95,0.00,,---,0.00,VWS V14.01,2013-01-29 08:44:00,
2013-01-29 03:49:00,49.6,48.2,30.22,WSW,248,0.0,0.0,95,0.00,,---,0.00,VWS V14.01,2013-01-29 08:49:00,
2013-01-29 03:54:00,49.4,48.0,30.21,WSW,248,0.7,0.8,95,0.00,,---,0.00,VWS V14.01,2013-01-29 08:54:00,
2013-01-29 03:59:00,49.4,48.0,30.21,West,270,0.7,0.8,95,0.00,,---,0.00,VWS V14.01,2013-01-29 08:59:00,
2013-01-29 04:04:00,49.2,47.8,30.21,West,270,0.0,0.0,95,0.00,,---,0.00,VWS V14.01,2013-01-29 09:04:00,
2013-01-29 04:09:00,49.0,47.6,30.21,WNW,292,1.2,1.5,95,0.00,,---,0.00,VWS V14.01,2013-01-29 09:09:00,
2013-01-29 04:14:00,49.0,47.6,30.21,NNW,338,0.0,0.0,95,0.00,,---,0.00,VWS V14.01,2013-01-29 09:14:00,
2013-01-29 04:19:00,48.9,47.5,30.21,NNW,338,0.0,0.0,95,0.00,,---,0.00,VWS V14.01,2013-01-29 09:19:00,
2013-01-29 04:24:00,48.3,46.9,30.21,NNW,338,0.0,0.0,95,0.00,,---,0.00,VWS V14.01,2013-01-29 09:24:00,
2013-01-29 04:29:00,48.1,46.7,30.21,NNW,338,0.0,0.0,95,0.00,,---,0.00,VWS V14.01,2013-01-29 09:29:00,
2013-01-29 04:34:00,48.0,46.6,30.21,NNW,338,0.0,0.0,95,0.00,,---,0.00,VWS V14.01,2013-01-29 09:34:00,
2013-01-29 04:39:00,47.8,46.4,30.21,NNW,338,0.0,0.0,95,0.00,,---,0.00,VWS V14.01,2013-01-29 09:39:00,
2013-01-29 04:44:00,47.6,46.2,30.21,NNW,338,0.7,0.8,95,0.00,,---,0.00,VWS V14.01,2013-01-29 09:44:00,
2013-01-29 04:49:00,47.4,46.0,30.21,NNW,338,0.0,0.0,95,0.00,,---,0.00,VWS V14.01,2013-01-29 09:49:00,
2013-01-29 04:54:00,47.1,45.7,30.21,NNW,338,0.0,0.0,95,0.00,,---,0.00,VWS V14.01,2013-01-29 09:54:00,
2013-01-29 04:59:00,47.1,45.7,30.21,NNW,338,0.0,0.0,95,0.00,,---,0.00,VWS V14.01,2013-01-29 09:59:00,
2013-01-29 05:04:00,46.9,45.5,30.21,NNW,338,0.0,0.0,95,0.00,,---,0.00,VWS V14.01,2013-01-29 10:04:00,
2013-01-29 05:09:00,46.9,45.5,30.21,NNW,338,0.0,0.0,95,0.00,,---,0.00,VWS V14.01,2013-01-29 10:09:00,
2013-01-29 05:14:00,46.5,45.2,30.21,NNW,338,0.0,0.0,95,0.00,,---,0.00,VWS V14.01,2013-01-29 10:14:00,
2013-01-29 05:19:00,46.5,45.2,30.21,NNW,338,0.0,0.0,95,0.00,,---,0.00,VWS V14.01,2013-01-29 10:19:00,
2013-01-29 05:24:00,46.3,45.0,30.21,NNW,338,0.0,0.0,95,0.00,,---,0.00,VWS V14.01,2013-01-29 10:24:00,
2013-01-29 05:29:00,46.3,44.9,30.21,NNW,338,0.0,0.0,95,0.00,,---,0.00,VWS V14.01,2013-01-29 10:29:00,
2013-01-29 05:34:00,46.1,44.7,30.21,NNW,338,0.0,0.0,95,0.00,,---,0.00,VWS V14.01,2013-01-29 10:34:00,
2013-01-29 05:39:00,45.9,44.8,30.21,NNW,338,0.0,0.0,96,0.00,,---,0.00,VWS V14.01,2013-01-29 10:39:00,
2013-01-29 05:44:00,45.9,44.8,30.21,NNW,338,0.0,0.0,96,0.00,,---,0.00,VWS V14.01,2013-01-29 10:44:00,
2013-01-29 05:49:00,45.5,44.4,30.21,NNW,338,0.0,0.0,96,0.00,,---,0.00,VWS V14.01,2013-01-29 10:49:00,
2013-01-29 05:54:00,45.4,44.0,30.21,NNW,338,0.0,0.0,95,0.00,,---,0.00,VWS V14.01,2013-01-29 10:54:00,
2013-01-29 05:59:00,45.2,44.1,30.21,NNW,338,0.0,0.0,96,0.00,,---,0.00,VWS V14.01,2013-01-29 10:59:00,
2013-01-29 06:04:00,45.0,43.9,30.21,WNW,292,0.7,0.8,96,0.00,,---,0.00,VWS V14.01,2013-01-29 11:04:00,
2013-01-29 06:09:00,45.2,44.1,30.21,WNW,292,0.0,0.0,96,0.00,,---,0.00,VWS V14.01,2013-01-29 11:09:00,
2013-01-29 06:14:00,45.2,44.1,30.22,WNW,292,0.0,0.0,96,0.00,,---,0.00,VWS V14.01,2013-01-29 11:14:00,
2013-01-29 06:19:00,45.4,44.3,30.22,WNW,292,0.0,0.0,96,0.00,,---,0.00,VWS V14.01,2013-01-29 11:19:00,
2013-01-29 06:24:00,45.2,44.1,30.22,WNW,292,0.0,0.0,96,0.00,,---,0.00,VWS V14.01,2013-01-29 11:24:00,
2013-01-29 06:29:00,45.2,44.1,30.22,WNW,292,0.0,0.0,96,0.00,,---,0.00,VWS V14.01,2013-01-29 11:29:00,
2013-01-29 06:34:00,45.4,44.3,30.22,WNW,292,0.0,0.0,96,0.00,,---,0.00,VWS V14.01,2013-01-29 11:34:00,
2013-01-29 06:39:00,45.4,44.3,30.22,WNW,292,0.0,0.0,96,0.00,,---,0.00,VWS V14.01,2013-01-29 11:39:00,
2013-01-29 06:44:00,45.5,44.4,30.22,WNW,292,0.0,0.0,96,0.00,,---,0.00,VWS V14.01,2013-01-29 11:44:00,
2013-01-29 06:49:00,45.7,44.6,30.22,WNW,292,0.0,0.0,96,0.00,,---,0.00,VWS V14.01,2013-01-29 11:49:00,
2013-01-29 06:54:00,45.9,44.8,30.22,WNW,292,0.0,0.0,96,0.00,,---,0.00,VWS V14.01,2013-01-29 11:54:00,
2013-01-29 06:59:00,45.9,44.8,30.22,WNW,292,0.0,0.0,96,0.00,,---,0.00,VWS V14.01,2013-01-29 11:59:00,
2013-01-29 07:04:00,45.9,44.8,30.22,WNW,292,0.0,0.0,96,0.00,,---,0.00,VWS V14.01,2013-01-29 12:04:00,
2013-01-29 07:09:00,45.9,44.8,30.22,WNW,292,0.0,0.0,96,0.00,,---,0.00,VWS V14.01,2013-01-29 12:09:00,
2013-01-29 07:14:00,45.7,44.6,30.22,WNW,292,0.0,0.0,96,0.00,,---,0.00,VWS V14.01,2013-01-29 12:14:00,
2013-01-29 07:19:00,45.5,44.4,30.22,WNW,292,0.0,0.0,96,0.00,,---,0.00,VWS V14.01,2013-01-29 12:19:00,
2013-01-29 07:24:00,45.4,44.3,30.22,WNW,292,0.3,0.4,96,0.00,,---,0.00,VWS V14.01,2013-01-29 12:24:00,
2013-01-29 07:29:00,45.5,44.4,30.23,NNW,338,0.7,0.8,96,0.00,,---,0.00,VWS V14.01,2013-01-29 12:29:00,
2013-01-29 07:34:00,45.5,44.4,30.23,NNW,338,0.7,0.8,96,0.00,,---,0.00,VWS V14.01,2013-01-29 12:34:00,
2013-01-29 07:39:00,45.5,44.4,30.23,NNW,338,0.7,0.8,96,0.00,,---,0.00,VWS V14.01,2013-01-29 12:39:00,
2013-01-29 07:44:00,45.2,44.1,30.23,WNW,292,0.0,0.0,96,0.00,,---,0.00,VWS V14.01,2013-01-29 12:44:00,
2013-01-29 07:49:00,45.2,44.1,30.23,WNW,292,0.0,0.0,96,0.00,,---,0.00,VWS V14.01,2013-01-29 12:49:00,
2013-01-29 07:54:00,45.2,44.1,30.23,WNW,292,0.0,0.0,96,0.00,,---,0.00,VWS V14.01,2013-01-29 12:54:00,
2013-01-29 07:59:00,45.5,44.4,30.23,North,0,0.7,0.8,96,0.00,,---,0.00,VWS V14.01,2013-01-29 12:59:00,
2013-01-29 08:04:00,45.9,44.8,30.23,North,0,0.0,0.0,96,0.00,,---,0.00,VWS V14.01,2013-01-29 13:04:00,
2013-01-29 08:09:00,46.1,45.0,30.23,North,0,0.0,0.0,96,0.00,,---,0.00,VWS V14.01,2013-01-29 13:09:00,
2013-01-29 08:14:00,46.5,45.4,30.23,NNW,338,0.0,0.0,96,0.00,,---,0.00,VWS V14.01,2013-01-29 13:14:00,
2013-01-29 08:19:00,46.8,45.6,30.23,West,270,0.0,0.0,96,0.00,,---,0.00,VWS V14.01,2013-01-29 13:19:00,
2013-01-29 08:24:00,46.8,45.6,30.23,West,270,0.0,0.0,96,0.00,,---,0.00,VWS V14.01,2013-01-29 13:24:00,
2013-01-29 08:29:00,46.8,45.6,30.23,West,270,0.0,0.0,96,0.00,,---,0.00,VWS V14.01,2013-01-29 13:29:00,
2013-01-29 08:34:00,48.3,47.5,30.23,WNW,292,0.7,0.8,97,0.00,,---,0.00,VWS V14.01,2013-01-29 13:34:00,
2013-01-29 08:39:00,48.9,48.1,30.23,WNW,292,0.0,0.0,97,0.00,,---,0.00,VWS V14.01,2013-01-29 13:39:00,
2013-01-29 08:44:00,49.2,48.4,30.23,WNW,292,1.8,2.3,97,0.00,,---,0.00,VWS V14.01,2013-01-29 13:44:00,
2013-01-29 08:49:00,49.8,48.9,30.23,WNW,292,1.8,2.3,97,0.00,,---,0.00,VWS V14.01,2013-01-29 13:49:00,
2013-01-29 08:54:00,49.8,48.9,30.23,WNW,292,1.8,2.3,97,0.00,,---,0.00,VWS V14.01,2013-01-29 13:54:00,
2013-01-29 08:59:00,49.8,48.9,30.23,WNW,292,1.8,2.3,97,0.00,,---,0.00,VWS V14.01,2013-01-29 13:59:00,
2013-01-29 09:04:00,49.8,48.9,30.23,WNW,292,1.8,2.3,97,0.00,,---,0.00,VWS V14.01,2013-01-29 14:04:00,
2013-01-29 09:09:00,51.2,50.0,30.23,NW,315,1.5,4.2,96,0.00,,---,0.00,VWS V14.01,2013-01-29 14:09:00,
2013-01-29 09:14:00,51.7,50.5,30.23,West,270,1.8,2.3,96,0.00,,---,0.00,VWS V14.01,2013-01-29 14:14:00,
2013-01-29 09:19:00,52.2,51.4,30.24,NNW,338,1.8,2.3,97,0.00,,---,0.00,VWS V14.01,2013-01-29 14:19:00,
2013-01-29 09:24:00,53.3,52.2,30.24,WNW,292,2.6,3.4,96,0.00,,---,0.00,VWS V14.01,2013-01-29 14:24:00,
2013-01-29 09:29:00,54.0,52.3,30.24,WNW,292,1.8,2.3,94,0.00,,---,0.00,VWS V14.01,2013-01-29 14:29:00,
2013-01-29 09:34:00,54.7,52.7,30.23,West,270,5.1,6.5,93,0.00,,---,0.00,VWS V14.01,2013-01-29 14:34:00,
2013-01-29 09:39:00,55.4,52.7,30.23,WSW,248,0.7,2.3,91,0.00,,---,0.00,VWS V14.01,2013-01-29 14:39:00,
2013-01-29 09:44:00,56.0,53.0,30.23,NW,315,3.3,4.2,90,0.00,,---,0.00,VWS V14.01,2013-01-29 14:44:00,
2013-01-29 09:49:00,56.5,53.5,30.23,WSW,248,2.1,2.7,90,0.00,,---,0.00,VWS V14.01,2013-01-29 14:49:00,
2013-01-29 09:54:00,57.3,53.7,30.23,NNW,338,3.6,7.1,88,0.00,,---,0.00,VWS V14.01,2013-01-29 14:54:00,
2013-01-29 09:59:00,57.5,53.9,30.23,West,270,2.6,3.4,88,0.00,,---,0.00,VWS V14.01,2013-01-29 14:59:00,
2013-01-29 10:05:00,58.6,54.7,30.23,WNW,292,1.8,2.3,87,0.00,,---,0.00,VWS V14.01,2013-01-29 15:05:00,
2013-01-29 10:10:00,59.1,54.8,30.23,NW,315,4.1,5.2,86,0.00,,---,0.00,VWS V14.01,2013-01-29 15:10:00,
2013-01-29 10:15:00,59.8,55.5,30.23,West,270,2.1,3.8,86,0.00,,---,0.00,VWS V14.01,2013-01-29 15:15:00,
2013-01-29 10:20:00,60.7,56.0,30.22,WSW,248,2.1,8.4,85,0.00,,---,0.00,VWS V14.01,2013-01-29 15:20:00,
2013-01-29 10:25:00,61.2,56.6,30.23,WSW,248,2.6,3.4,85,0.00,,---,0.00,VWS V14.01,2013-01-29 15:25:00,
2013-01-29 10:30:00,61.9,56.6,30.22,North,0,4.1,5.2,83,0.00,,---,0.00,VWS V14.01,2013-01-29 15:30:00,
2013-01-29 10:35:00,62.4,56.4,30.22,NW,315,3.0,6.1,81,0.00,,---,0.00,VWS V14.01,2013-01-29 15:35:00,
2013-01-29 10:40:00,62.8,56.8,30.22,WSW,248,3.0,3.8,81,0.00,,---,0.00,VWS V14.01,2013-01-29 15:40:00,
2013-01-29 10:45:00,63.7,57.6,30.21,NW,315,5.1,6.5,81,0.00,,---,0.00,VWS V14.01,2013-01-29 15:45:00,
2013-01-29 10:50:00,63.9,57.1,30.21,WSW,248,6.6,8.4,79,0.00,,---,0.00,VWS V14.01,2013-01-29 15:50:00,
2013-01-29 10:55:00,64.9,57.7,30.21,WNW,292,2.1,2.7,78,0.00,,---,0.00,VWS V14.01,2013-01-29 15:55:00,
2013-01-29 11:00:00,65.5,58.3,30.21,WNW,292,3.6,4.6,78,0.00,,---,0.00,VWS V14.01,2013-01-29 16:00:00,
2013-01-29 11:05:00,65.9,58.7,30.21,WNW,292,3.6,4.6,78,0.00,,---,0.00,VWS V14.01,2013-01-29 16:05:00,
2013-01-29 11:10:00,66.3,58.8,30.21,WNW,292,2.1,2.7,76,0.00,,---,0.00,VWS V14.01,2013-01-29 16:10:00,
2013-01-29 11:15:00,66.8,59.2,30.20,WNW,292,0.7,0.8,76,0.00,,---,0.00,VWS V14.01,2013-01-29 16:15:00,
2013-01-29 11:20:00,67.4,59.4,30.20,WNW,292,4.8,7.1,75,0.00,,---,0.00,VWS V14.01,2013-01-29 16:20:00,
2013-01-29 11:25:00,67.5,58.7,30.20,West,270,4.8,9.0,73,0.00,,---,0.00,VWS V14.01,2013-01-29 16:25:00,
2013-01-29 11:30:00,67.9,58.3,30.20,WSW,248,8.9,11.3,71,0.00,,---,0.00,VWS V14.01,2013-01-29 16:30:00,
2013-01-29 11:35:00,68.1,58.9,30.19,WSW,248,3.0,3.8,72,0.00,,---,0.00,VWS V14.01,2013-01-29 16:35:00,
2013-01-29 11:40:00,68.3,58.7,30.19,SW,225,11.1,14.1,71,0.00,,---,0.00,VWS V14.01,2013-01-29 16:40:00,
2013-01-29 11:45:00,68.6,58.6,30.19,WNW,292,3.3,4.2,70,0.00,,---,0.00,VWS V14.01,2013-01-29 16:45:00,
2013-01-29 11:50:00,69.2,59.2,30.19,WNW,292,3.0,3.8,70,0.00,,---,0.00,VWS V14.01,2013-01-29 16:50:00,
2013-01-29 11:55:00,69.9,59.8,30.19,NNW,338,5.6,7.1,70,0.00,,---,0.00,VWS V14.01,2013-01-29 16:55:00,
2013-01-29 12:00:00,70.2,60.1,30.19,NNW,338,6.3,8.0,70,0.00,,---,0.00,VWS V14.01,2013-01-29 17:00:00,
2013-01-29 12:05:00,70.6,60.5,30.19,East,90,1.8,3.4,70,0.00,,---,0.00,VWS V14.01,2013-01-29 17:05:00,
2013-01-29 12:10:00,71.1,60.1,30.18,WNW,292,3.0,8.0,68,0.00,,---,0.00,VWS V14.01,2013-01-29 17:10:00,
2013-01-29 12:15:00,71.6,60.2,30.18,NW,315,5.6,7.1,67,0.00,,---,0.00,VWS V14.01,2013-01-29 17:15:00,
2013-01-29 12:20:00,71.8,60.0,30.17,WNW,292,4.5,5.7,66,0.00,,---,0.00,VWS V14.01,2013-01-29 17:20:00,
2013-01-29 12:25:00,71.9,59.7,30.17,West,270,5.1,6.5,65,0.00,,---,0.00,VWS V14.01,2013-01-29 17:25:00,
2013-01-29 12:30:00,71.9,60.1,30.17,WNW,292,3.6,4.6,66,0.00,,---,0.00,VWS V14.01,2013-01-29 17:30:00,
2013-01-29 12:35:00,72.1,59.8,30.17,NW,315,5.6,7.1,65,0.00,,---,0.00,VWS V14.01,2013-01-29 17:35:00,
2013-01-29 12:40:00,72.3,60.0,30.16,NNE,22,5.6,7.1,65,0.00,,---,0.00,VWS V14.01,2013-01-29 17:40:00,
2013-01-29 12:45:00,72.3,60.5,30.16,NNW,338,5.6,7.1,66,0.00,,---,0.00,VWS V14.01,2013-01-29 17:45:00,
2013-01-29 12:50:00,72.5,59.8,30.16,NNW,338,4.5,6.1,64,0.00,,---,0.00,VWS V14.01,2013-01-29 17:50:00,
2013-01-29 12:55:00,73.0,60.2,30.16,WSW,248,5.1,6.5,64,0.00,,---,0.00,VWS V14.01,2013-01-29 17:55:00,
2013-01-29 13:00:00,73.4,61.0,30.16,NNW,338,3.6,4.6,65,0.00,,---,0.00,VWS V14.01,2013-01-29 18:00:00,
2013-01-29 13:05:00,73.7,60.0,30.15,ENE,68,2.6,3.4,62,0.00,,---,0.00,VWS V14.01,2013-01-29 18:05:00,
2013-01-29 13:10:00,74.1,60.3,30.15,WNW,292,5.9,7.6,62,0.00,,---,0.00,VWS V14.01,2013-01-29 18:10:00,
2013-01-29 13:15:00,74.3,60.5,30.14,WNW,292,4.8,6.1,62,0.00,,---,0.00,VWS V14.01,2013-01-29 18:15:00,
2013-01-29 13:20:00,74.5,60.7,30.14,WNW,292,1.8,2.3,62,0.00,,---,0.00,VWS V14.01,2013-01-29 18:20:00,
2013-01-29 13:25:00,74.6,59.9,30.14,WSW,248,4.8,6.1,60,0.00,,---,0.00,VWS V14.01,2013-01-29 18:25:00,
2013-01-29 13:30:00,74.5,60.3,30.14,WNW,292,5.6,7.1,61,0.00,,---,0.00,VWS V14.01,2013-01-29 18:30:00,
2013-01-29 13:35:00,74.8,60.5,30.13,West,270,1.8,2.3,61,0.00,,---,0.00,VWS V14.01,2013-01-29 18:35:00,
2013-01-29 13:40:00,75.4,60.6,30.13,WNW,292,5.6,7.1,60,0.00,,---,0.00,VWS V14.01,2013-01-29 18:40:00,
2013-01-29 13:45:00,75.7,60.9,30.13,West,270,2.1,2.7,60,0.00,,---,0.00,VWS V14.01,2013-01-29 18:45:00,
2013-01-29 13:50:00,75.8,59.1,30.12,WSW,248,6.3,8.0,56,0.00,,---,0.00,VWS V14.01,2013-01-29 18:50:00,
2013-01-29 13:55:00,75.5,59.7,30.12,West,270,2.6,3.4,58,0.00,,---,0.00,VWS V14.01,2013-01-29 18:55:00,
2013-01-29 14:00:00,75.4,59.6,30.12,WNW,292,2.6,3.4,58,0.00,,---,0.00,VWS V14.01,2013-01-29 19:00:00,
2013-01-29 14:05:00,75.2,60.0,30.12,NW,315,2.1,3.8,59,0.00,,---,0.00,VWS V14.01,2013-01-29 19:05:00,
2013-01-29 14:10:00,75.2,58.5,30.12,NE,45,5.6,7.1,56,0.00,,---,0.00,VWS V14.01,2013-01-29 19:10:00,
2013-01-29 14:15:00,75.0,59.8,30.11,NNW,338,2.6,3.4,59,0.00,,---,0.00,VWS V14.01,2013-01-29 19:15:00,
2013-01-29 14:20:00,75.0,59.8,30.11,NW,315,4.1,5.2,59,0.00,,---,0.00,VWS V14.01,2013-01-29 19:20:00,
2013-01-29 14:25:00,74.5,59.3,30.12,NW,315,3.0,3.8,59,0.00,,---,0.00,VWS V14.01,2013-01-29 19:25:00,
2013-01-29 14:30:00,74.6,58.9,30.12,WSW,248,5.1,6.5,58,0.00,,---,0.00,VWS V14.01,2013-01-29 19:30:00,
2013-01-29 14:35:00,75.0,60.2,30.12,NNW,338,3.6,4.6,60,0.00,,---,0.00,VWS V14.01,2013-01-29 19:35:00,
2013-01-29 14:40:00,75.0,57.8,30.12,WSW,248,7.4,9.4,55,0.00,,---,0.00,VWS V14.01,2013-01-29 19:40:00,
2013-01-29 14:45:00,74.5,58.3,30.12,NW,315,0.7,0.8,57,0.00,,---,0.00,VWS V14.01,2013-01-29 19:45:00,
2013-01-29 14:50:00,73.7,57.6,30.12,WSW,248,5.9,7.6,57,0.00,,---,0.00,VWS V14.01,2013-01-29 19:50:00,
2013-01-29 14:55:00,73.7,57.1,30.12,WSW,248,5.1,6.5,56,0.00,,---,0.00,VWS V14.01,2013-01-29 19:55:00,
2013-01-29 15:00:00,73.4,57.8,30.12,NNW,338,2.6,3.4,58,0.00,,---,0.00,VWS V14.01,2013-01-29 20:00:00,
2013-01-29 15:05:00,73.4,58.3,30.12,West,270,1.8,6.1,59,0.00,,---,0.00,VWS V14.01,2013-01-29 20:05:00,
2013-01-29 15:10:00,73.7,58.6,30.12,West,270,2.1,2.7,59,0.00,,---,0.00,VWS V14.01,2013-01-29 20:10:00,
2013-01-29 15:15:00,74.6,57.4,30.12,NW,315,4.8,6.1,55,0.00,,---,0.00,VWS V14.01,2013-01-29 20:15:00,
2013-01-29 15:20:00,75.4,59.2,30.12,North,0,4.1,5.2,57,0.00,,---,0.00,VWS V14.01,2013-01-29 20:20:00,
2013-01-29 15:25:00,75.7,58.4,30.12,NW,315,3.6,4.6,55,0.00,,---,0.00,VWS V14.01,2013-01-29 20:25:00,
2013-01-29 15:30:00,75.7,58.9,30.12,SW,225,1.8,2.3,56,0.00,,---,0.00,VWS V14.01,2013-01-29 20:30:00,
2013-01-29 15:35:00,75.8,58.6,30.12,NW,315,2.6,3.4,55,0.00,,---,0.00,VWS V14.01,2013-01-29 20:35:00,
2013-01-29 15:40:00,76.1,58.8,30.12,NNW,338,2.6,3.4,55,0.00,,---,0.00,VWS V14.01,2013-01-29 20:40:00,
2013-01-29 15:45:00,76.3,59.6,30.12,West,270,2.1,2.7,56,0.00,,---,0.00,VWS V14.01,2013-01-29 20:45:00,
2013-01-29 15:50:00,76.5,58.2,30.12,WSW,248,5.6,7.1,53,0.00,,---,0.00,VWS V14.01,2013-01-29 20:50:00,
2013-01-29 15:55:00,76.5,59.2,30.12,NW,315,2.1,2.7,55,0.00,,---,0.00,VWS V14.01,2013-01-29 20:55:00,
2013-01-29 16:00:00,76.7,57.8,30.12,WSW,248,4.1,5.2,52,0.00,,---,0.00,VWS V14.01,2013-01-29 21:00:00,
2013-01-29 16:05:00,76.2,58.4,30.12,West,270,4.1,5.2,54,0.00,,---,0.00,VWS V14.01,2013-01-29 21:05:00,
2013-01-29 16:10:00,75.8,58.6,30.12,WNW,292,1.8,2.3,55,0.00,,---,0.00,VWS V14.01,2013-01-29 21:10:00,
2013-01-29 16:15:00,75.8,58.1,30.12,WNW,292,3.0,3.8,54,0.00,,---,0.00,VWS V14.01,2013-01-29 21:15:00,
2013-01-29 16:20:00,75.7,57.4,30.12,WNW,292,1.8,2.3,53,0.00,,---,0.00,VWS V14.01,2013-01-29 21:20:00,
2013-01-29 16:25:00,75.2,58.5,30.12,WNW,292,1.2,1.5,56,0.00,,---,0.00,VWS V14.01,2013-01-29 21:25:00,
2013-01-29 16:30:00,74.6,57.4,30.12,WNW,292,1.8,3.8,55,0.00,,---,0.00,VWS V14.01,2013-01-29 21:30:00,
2013-01-29 16:35:00,73.7,56.6,30.12,South,180,1.8,2.3,55,0.00,,---,0.00,VWS V14.01,2013-01-29 21:35:00,
2013-01-29 16:40:00,73.0,57.0,30.12,West,270,0.0,0.0,57,0.00,,---,0.00,VWS V14.01,2013-01-29 21:40:00,
2013-01-29 16:45:00,72.7,57.2,30.12,West,270,1.8,2.3,58,0.00,,---,0.00,VWS V14.01,2013-01-29 21:45:00,
2013-01-29 16:50:00,72.5,57.5,30.12,SW,225,0.0,0.0,59,0.00,,---,0.00,VWS V14.01,2013-01-29 21:50:00,
2013-01-29 16:55:00,71.8,57.3,30.12,SSW,202,1.2,1.5,60,0.00,,---,0.00,VWS V14.01,2013-01-29 21:55:00,
2013-01-29 17:00:00,70.9,57.4,30.12,West,270,1.8,2.3,62,0.00,,---,0.00,VWS V14.01,2013-01-29 22:00:00,
2013-01-29 17:05:00,70.6,57.0,30.12,WNW,292,1.8,2.3,62,0.00,,---,0.00,VWS V14.01,2013-01-29 22:05:00,
2013-01-29 17:10:00,70.2,57.1,30.12,West,270,0.0,0.0,63,0.00,,---,0.00,VWS V14.01,2013-01-29 22:10:00,
2013-01-29 17:15:00,69.7,57.1,30.12,West,270,0.0,0.8,64,0.00,,---,0.00,VWS V14.01,2013-01-29 22:15:00,
2013-01-29 17:20:00,69.3,56.7,30.11,WSW,248,0.0,0.8,64,0.00,,---,0.00,VWS V14.01,2013-01-29 22:20:00,
2013-01-29 17:25:00,69.0,56.4,30.11,SE,135,1.2,1.5,64,0.00,,---,0.00,VWS V14.01,2013-01-29 22:25:00,
2013-01-29 17:30:00,68.4,56.3,30.11,SE,135,1.2,1.5,65,0.00,,---,0.00,VWS V14.01,2013-01-29 22:30:00,
2013-01-29 17:35:00,68.1,56.5,30.11,SE,135,0.7,0.8,66,0.00,,---,0.00,VWS V14.01,2013-01-29 22:35:00,
2013-01-29 17:40:00,67.4,55.8,30.11,SE,135,0.7,0.8,66,0.00,,---,0.00,VWS V14.01,2013-01-29 22:40:00,
2013-01-29 17:45:00,66.6,55.9,30.11,SE,135,0.0,0.0,68,0.00,,---,0.00,VWS V14.01,2013-01-29 22:45:00,
2013-01-29 17:50:00,65.7,55.4,30.11,SE,135,0.0,0.0,69,0.00,,---,0.00,VWS V14.01,2013-01-29 22:50:00,
2013-01-29 17:55:00,65.3,55.4,30.11,SE,135,0.0,0.0,70,0.00,,---,0.00,VWS V14.01,2013-01-29 22:55:00,
2013-01-29 18:00:00,64.6,55.1,30.11,SE,135,0.0,0.0,71,0.00,,---,0.00,VWS V14.01,2013-01-29 23:00:00,
2013-01-29 18:05:00,64.0,55.0,30.11,SE,135,0.0,0.0,72,0.00,,---,0.00,VWS V14.01,2013-01-29 23:05:00,
2013-01-29 18:10:00,63.1,54.5,30.11,SE,135,0.0,0.0,73,0.00,,---,0.00,VWS V14.01,2013-01-29 23:10:00,
2013-01-29 18:15:00,63.0,54.8,30.11,SE,135,0.0,0.0,74,0.00,,---,0.00,VWS V14.01,2013-01-29 23:15:00,
2013-01-29 18:20:00,62.2,54.4,30.12,SE,135,0.0,0.0,75,0.00,,---,0.00,VWS V14.01,2013-01-29 23:20:00,
2013-01-29 18:25:00,61.7,54.7,30.11,SW,225,0.0,0.0,78,0.00,,---,0.00,VWS V14.01,2013-01-29 23:25:00,
2013-01-29 18:30:00,61.5,54.5,30.11,WSW,248,1.5,1.9,78,0.00,,---,0.00,VWS V14.01,2013-01-29 23:30:00,
2013-01-29 18:36:00,61.3,54.3,30.11,WSW,248,0.0,1.5,78,0.00,,---,0.00,VWS V14.01,2013-01-29 23:36:00,
2013-01-29 18:41:00,61.3,55.0,30.11,WSW,248,0.0,0.0,80,0.00,,---,0.00,VWS V14.01,2013-01-29 23:41:00,
2013-01-29 18:46:00,61.3,55.0,30.11,West,270,0.0,0.0,80,0.00,,---,0.00,VWS V14.01,2013-01-29 23:46:00,
2013-01-29 18:51:00,61.3,55.3,30.12,WSW,248,0.3,0.4,81,0.00,,---,0.00,VWS V14.01,2013-01-29 23:51:00,
2013-01-29 18:56:00,61.3,55.3,30.12,WSW,248,0.0,0.0,81,0.00,,---,0.00,VWS V14.01,2013-01-29 23:56:00,
2013-01-29 19:01:00,61.2,55.2,30.12,NNE,22,0.3,0.4,81,0.00,,---,0.00,VWS V14.01,2013-01-30 00:01:00,
2013-01-29 19:06:00,61.2,55.9,30.12,WSW,248,1.2,1.5,83,0.00,,---,0.00,VWS V14.01,2013-01-30 00:06:00,
2013-01-29 19:11:00,61.2,55.6,30.12,WSW,248,0.0,0.0,82,0.00,,---,0.00,VWS V14.01,2013-01-30 00:11:00,
2013-01-29 19:16:00,61.2,55.9,30.12,WSW,248,0.7,0.8,83,0.00,,---,0.00,VWS V14.01,2013-01-30 00:16:00,
2013-01-29 19:21:00,61.2,55.9,30.12,SW,225,0.7,1.9,83,0.00,,---,0.00,VWS V14.01,2013-01-30 00:21:00,
2013-01-29 19:26:00,61.0,55.7,30.12,West,270,1.5,1.9,83,0.00,,---,0.00,VWS V14.01,2013-01-30 00:26:00,
2013-01-29 19:31:00,61.0,55.7,30.12,WSW,248,0.0,0.0,83,0.00,,---,0.00,VWS V14.01,2013-01-30 00:31:00,
2013-01-29 19:36:00,61.0,55.7,30.12,NNW,338,0.3,0.4,83,0.00,,---,0.00,VWS V14.01,2013-01-30 00:36:00,
2013-01-29 19:41:00,61.0,56.4,30.12,SW,225,0.7,0.8,85,0.00,,---,0.00,VWS V14.01,2013-01-30 00:41:00,
2013-01-29 19:46:00,61.0,56.1,30.12,WSW,248,0.3,0.4,84,0.00,,---,0.00,VWS V14.01,2013-01-30 00:46:00,
2013-01-29 19:51:00,60.9,56.2,30.12,WSW,248,0.3,3.8,85,0.00,,---,0.00,VWS V14.01,2013-01-30 00:51:00,
2013-01-29 19:56:00,60.7,56.0,30.12,SSW,202,0.3,0.4,85,0.00,,---,0.00,VWS V14.01,2013-01-30 00:56:00,
2013-01-29 20:01:00,60.7,56.3,30.12,SW,225,0.0,5.2,86,0.00,,---,0.00,VWS V14.01,2013-01-30 01:01:00,
2013-01-29 20:06:00,60.5,56.2,30.12,SW,225,3.0,3.8,86,0.00,,---,0.00,VWS V14.01,2013-01-30 01:06:00,
2013-01-29 20:11:00,60.4,55.7,30.12,SW,225,0.0,0.0,85,0.00,,---,0.00,VWS V14.01,2013-01-30 01:11:00,
2013-01-29 20:16:00,60.4,55.7,30.12,South,180,0.3,0.4,85,0.00,,---,0.00,VWS V14.01,2013-01-30 01:16:00,
2013-01-29 20:21:00,60.2,55.9,30.12,West,270,1.5,1.9,86,0.00,,---,0.00,VWS V14.01,2013-01-30 01:21:00,
2013-01-29 20:26:00,60.0,55.7,30.12,SW,225,0.0,0.8,86,0.00,,---,0.00,VWS V14.01,2013-01-30 01:26:00,
2013-01-29 20:31:00,60.0,56.0,30.12,WNW,292,0.0,0.0,87,0.00,,---,0.00,VWS V14.01,2013-01-30 01:31:00,
2013-01-29 20:36:00,60.0,56.0,30.12,ESE,112,1.2,1.5,87,0.00,,---,0.00,VWS V14.01,2013-01-30 01:36:00,
2013-01-29 20:41:00,60.0,56.3,30.13,NW,315,2.1,2.7,88,0.00,,---,0.00,VWS V14.01,2013-01-30 01:41:00,
2013-01-29 20:46:00,60.0,56.7,30.13,SW,225,0.3,0.4,89,0.00,,---,0.00,VWS V14.01,2013-01-30 01:46:00,
2013-01-29 20:51:00,59.8,56.5,30.13,SW,225,0.7,0.8,89,0.00,,---,0.00,VWS V14.01,2013-01-30 01:51:00,
2013-01-29 20:56:00,59.8,56.1,30.13,WNW,292,0.0,0.0,88,0.00,,---,0.00,VWS V14.01,2013-01-30 01:56:00,
2013-01-29 21:01:00,59.6,55.9,30.13,WNW,292,0.0,0.0,88,0.00,,---,0.00,VWS V14.01,2013-01-30 02:01:00,
2013-01-29 21:06:00,59.6,56.3,30.13,WSW,248,3.0,3.8,89,0.00,,---,0.00,VWS V14.01,2013-01-30 02:06:00,
2013-01-29 21:11:00,59.6,56.3,30.13,West,270,0.0,0.0,89,0.00,,---,0.00,VWS V14.01,2013-01-30 02:11:00,
2013-01-29 21:16:00,59.6,57.2,30.12,SSW,202,1.8,2.3,92,0.00,,---,0.00,VWS V14.01,2013-01-30 02:16:00,
2013-01-29 21:21:00,59.6,56.9,30.13,SW,225,0.3,0.4,91,0.00,,---,0.00,VWS V14.01,2013-01-30 02:21:00,
2013-01-29 21:26:00,59.6,56.6,30.13,South,180,0.0,0.0,90,0.00,,---,0.00,VWS V14.01,2013-01-30 02:26:00,
2013-01-29 21:31:00,59.6,57.2,30.13,SW,225,4.1,5.2,92,0.00,,---,0.00,VWS V14.01,2013-01-30 02:31:00,
2013-01-29 21:36:00,59.6,56.6,30.13,SE,135,1.2,1.5,90,0.00,,---,0.00,VWS V14.01,2013-01-30 02:36:00,
2013-01-29 21:41:00,59.5,56.8,30.13,SW,225,2.1,2.7,91,0.00,,---,0.00,VWS V14.01,2013-01-30 02:41:00,
2013-01-29 21:46:00,59.5,56.8,30.13,SE,135,0.3,0.4,91,0.00,,---,0.00,VWS V14.01,2013-01-30 02:46:00,
2013-01-29 21:51:00,59.5,56.8,30.13,WSW,248,2.6,3.4,91,0.00,,---,0.00,VWS V14.01,2013-01-30 02:51:00,
2013-01-29 21:56:00,59.5,56.8,30.13,West,270,0.0,0.0,91,0.00,,---,0.00,VWS V14.01,2013-01-30 02:56:00,
2013-01-29 22:01:00,59.3,56.6,30.13,ESE,112,0.7,0.8,91,0.00,,---,0.00,VWS V14.01,2013-01-30 03:01:00,
2013-01-29 22:06:00,59.1,56.4,30.13,SW,225,0.3,0.4,91,0.00,,---,0.00,VWS V14.01,2013-01-30 03:06:00,
2013-01-29 22:11:00,59.1,56.4,30.13,West,270,0.7,0.8,91,0.00,,---,0.00,VWS V14.01,2013-01-30 03:11:00,
2013-01-29 22:16:00,58.9,56.2,30.13,SW,225,1.5,1.9,91,0.00,,---,0.00,VWS V14.01,2013-01-30 03:16:00,
2013-01-29 22:21:00,58.9,56.5,30.13,SSW,202,0.3,0.4,92,0.00,,---,0.00,VWS V14.01,2013-01-30 03:21:00,
2013-01-29 22:26:00,58.7,56.3,30.13,SSW,202,2.1,2.7,92,0.00,,---,0.00,VWS V14.01,2013-01-30 03:26:00,
2013-01-29 22:31:00,58.7,56.3,30.12,SE,135,3.6,4.6,92,0.00,,---,0.00,VWS V14.01,2013-01-30 03:31:00,
2013-01-29 22:36:00,58.6,56.2,30.12,SW,225,4.1,5.2,92,0.00,,---,0.00,VWS V14.01,2013-01-30 03:36:00,
2013-01-29 22:41:00,58.6,56.5,30.12,SW,225,0.0,0.0,93,0.00,,---,0.00,VWS V14.01,2013-01-30 03:41:00,
2013-01-29 22:46:00,58.4,56.0,30.12,NNW,338,0.3,0.4,92,0.00,,---,0.00,VWS V14.01,2013-01-30 03:46:00,
2013-01-29 22:51:00,58.4,56.3,30.12,West,270,0.7,0.8,93,0.00,,---,0.00,VWS V14.01,2013-01-30 03:51:00,
2013-01-29 22:56:00,58.4,56.0,30.12,SSW,202,3.6,4.6,92,0.00,,---,0.00,VWS V14.01,2013-01-30 03:56:00,
2013-01-29 23:01:00,58.6,56.8,30.13,SW,225,0.7,0.8,94,0.00,,---,0.00,VWS V14.01,2013-01-30 04:01:00,
2013-01-29 23:06:00,58.4,56.6,30.12,West,270,0.0,0.0,94,0.00,,---,0.00,VWS V14.01,2013-01-30 04:06:00,
2013-01-29 23:11:00,58.4,56.3,30.12,WNW,292,0.0,0.0,93,0.00,,---,0.00,VWS V14.01,2013-01-30 04:11:00,
2013-01-29 23:16:00,58.2,56.5,30.12,SSW,202,0.7,0.8,94,0.00,,---,0.00,VWS V14.01,2013-01-30 04:16:00,
2013-01-29 23:21:00,58.2,56.2,30.12,WSW,248,0.0,0.0,93,0.00,,---,0.00,VWS V14.01,2013-01-30 04:21:00,
2013-01-29 23:26:00,58.2,56.2,30.12,SW,225,0.7,0.8,93,0.00,,---,0.00,VWS V14.01,2013-01-30 04:26:00,
2013-01-29 23:31:00,58.2,56.5,30.12,ENE,68,0.3,0.4,94,0.00,,---,0.00,VWS V14.01,2013-01-30 04:31:00,
2013-01-29 23:36:00,58.0,56.0,30.13,West,270,0.0,0.0,93,0.00,,---,0.00,VWS V14.01,2013-01-30 04:36:00,
2013-01-29 23:41:00,58.0,56.3,30.12,ENE,68,0.0,0.0,94,0.00,,---,0.00,VWS V14.01,2013-01-30 04:41:00,
2013-01-29 23:46:00,58.0,56.3,30.13,South,180,1.8,2.3,94,0.00,,---,0.00,VWS V14.01,2013-01-30 04:46:00,
2013-01-29 23:51:00,58.2,56.8,30.13,WSW,248,0.0,0.0,95,0.00,,---,0.00,VWS V14.01,2013-01-30 04:51:00,
2013-01-29 23:56:00,58.2,56.8,30.13,WSW,248,0.0,0.8,95,0.00,,---,0.00,VWS V14.01,2013-01-30 04:56:00,